Time;durP1;ratioP1;P1;durP2;ratioP2;P2;SDS_P1;SDS_P2;PMS_P1;PMS_P2;Temp;Humidity;BMP_temperature;BMP_pressure;BME280_temperature;BME280_humidity;BME280_pressure;Samples;Min_cycle;Max_cycle;Signal;HPM_P1;HPM_P2
2022/10/05 00:02:20;;;;;;;2.90;2.20;;;19.50;60.10;;;;;;6244727;28;20108;-78
2022/10/05 00:05:21;;;;;;;4.60;2.70;;;19.60;60.00;;;;;;6247384;28;20045;-78
2022/10/05 00:08:29;;;;;;;4.18;2.53;;;19.60;60.10;;;;;;6250278;28;20461;-79
2022/10/05 00:11:30;;;;;;;9.13;2.50;;;19.50;60.20;;;;;;6219155;28;20113;-78
2022/10/05 00:14:34;;;;;;;4.35;2.40;;;19.60;60.50;;;;;;6245463;28;20052;-79
2022/10/05 00:17:35;;;;;;;7.35;2.70;;;19.50;60.70;;;;;;6248133;28;20030;-79
2022/10/05 00:20:36;;;;;;;6.03;2.88;;;19.50;60.80;;;;;;6249538;28;20103;-78
2022/10/05 00:23:37;;;;;;;12.70;3.08;;;19.40;61.10;;;;;;6246737;28;20132;-78
2022/10/05 00:26:38;;;;;;;9.98;2.53;;;19.40;61.30;;;;;;6254192;28;20040;-80
2022/10/05 00:29:40;;;;;;;7.68;2.90;;;19.40;61.60;;;;;;6230929;28;20041;-79
2022/10/05 00:32:42;;;;;;;7.25;2.58;;;19.30;61.80;;;;;;6247360;28;20073;-79
2022/10/05 00:35:45;;;;;;;9.02;2.30;;;19.30;62.00;;;;;;6250177;28;20037;-79
2022/10/05 00:38:46;;;;;;;6.72;2.83;;;19.20;62.20;;;;;;6232412;28;20042;-79
2022/10/05 00:42:08;;;;;;;12.25;2.80;;;19.20;62.40;;;;;;6254572;28;20068;-78
2022/10/05 00:45:14;;;;;;;5.90;2.80;;;19.10;62.70;;;;;;6241979;28;20482;-80
2022/10/05 00:48:57;;;;;;;12.77;2.50;;;19.10;62.90;;;;;;6227607;28;20053;-78
2022/10/05 00:52:18;;;;;;;6.50;2.28;;;19.00;63.20;;;;;;6214814;28;20046;-78
2022/10/05 00:55:55;;;;;;;3.42;2.13;;;19.00;63.20;;;;;;6201883;28;20610;-78
2022/10/05 00:59:17;;;;;;;3.60;2.53;;;18.90;63.50;;;;;;6194707;28;20513;-79
2022/10/05 01:02:29;;;;;;;4.68;2.40;;;18.80;63.60;;;;;;6201386;28;20570;-79
2022/10/05 01:05:48;;;;;;;8.15;2.72;;;18.70;63.60;;;;;;6185896;28;20088;-79
2022/10/05 01:09:18;;;;;;;5.28;2.20;;;18.70;63.80;;;;;;6201473;28;20044;-79
2022/10/05 01:12:33;;;;;;;3.10;2.22;;;18.70;63.90;;;;;;6217703;28;20513;-78
2022/10/05 01:15:56;;;;;;;3.22;1.77;;;18.60;63.80;;;;;;6240868;28;20049;-78
2022/10/05 01:19:35;;;;;;;3.53;2.03;;;18.60;63.90;;;;;;6199522;28;20067;-78
2022/10/05 01:22:55;;;;;;;4.72;2.05;;;18.60;63.90;;;;;;6214358;28;20360;-79
2022/10/05 01:26:22;;;;;;;5.32;2.22;;;18.60;63.90;;;;;;6209545;28;20371;-78
2022/10/05 01:29:26;;;;;;;3.47;2.17;;;18.50;64.10;;;;;;6214824;28;20356;-78
2022/10/05 01:32:38;;;;;;;3.72;2.33;;;18.50;64.20;;;;;;6219959;28;20352;-78
2022/10/05 01:35:57;;;;;;;3.55;2.17;;;18.50;64.30;;;;;;6218611;28;20056;-78
2022/10/05 01:39:21;;;;;;;;;;;18.50;64.40;;;;;;6217705;28;20042;-78
2022/10/05 01:42:27;;;;;;;6.03;2.42;;;18.40;64.40;;;;;;6212874;28;20342;-78
2022/10/05 01:45:34;;;;;;;4.93;2.58;;;18.40;64.40;;;;;;6215632;28;20057;-79
2022/10/05 01:49:05;;;;;;;3.13;2.00;;;18.40;64.60;;;;;;6197979;28;20042;-79
2022/10/05 01:52:35;;;;;;;4.95;2.25;;;18.40;64.70;;;;;;6183146;28;20121;-79
2022/10/05 01:56:00;;;;;;;4.45;1.95;;;18.30;64.60;;;;;;6197994;28;20041;-78
2022/10/05 01:59:27;;;;;;;7.10;2.43;;;18.30;64.60;;;;;;6216763;28;20129;-78
2022/10/05 02:02:56;;;;;;;3.35;2.15;;;18.20;64.50;;;;;;6128704;28;20102;-79
2022/10/05 02:06:06;;;;;;;9.07;2.42;;;18.20;64.50;;;;;;6144545;28;20039;-78
2022/10/05 02:09:27;;;;;;;6.95;2.70;;;18.20;64.50;;;;;;6145117;28;20031;-79
2022/10/05 02:12:33;;;;;;;2.88;2.13;;;18.20;64.60;;;;;;6143335;28;20035;-79
2022/10/05 02:15:45;;;;;;;4.93;2.28;;;18.10;64.60;;;;;;6144263;28;20055;-79
2022/10/05 02:19:00;;;;;;;6.53;2.20;;;18.10;64.60;;;;;;6152091;28;20070;-79
2022/10/05 02:22:20;;;;;;;3.53;1.92;;;18.10;64.70;;;;;;6163402;28;20035;-79
2022/10/05 02:25:44;;;;;;;4.88;1.90;;;18.10;64.80;;;;;;6166950;28;20035;-79
2022/10/05 02:28:55;;;;;;;2.75;1.88;;;18.10;64.80;;;;;;6151474;28;20061;-79
2022/10/05 02:32:04;;;;;;;6.72;2.47;;;18.00;64.70;;;;;;6156699;28;20054;-78
2022/10/05 02:35:16;;;;;;;9.38;2.42;;;18.00;64.90;;;;;;6168421;28;20114;-78
2022/10/05 02:38:50;;;;;;;6.20;2.15;;;17.90;65.10;;;;;;6179789;28;20111;-79
2022/10/05 02:42:23;;;;;;;4.90;2.35;;;17.90;65.30;;;;;;6224552;28;20048;-78
2022/10/05 02:45:58;;;;;;;3.35;2.20;;;17.80;65.50;;;;;;6243357;28;20178;-80
2022/10/05 02:49:18;;;;;;;10.23;2.25;;;17.80;65.70;;;;;;6224739;28;20574;-79
2022/10/05 02:52:19;;;;;;;3.17;2.25;;;17.80;65.90;;;;;;6242926;28;20355;-79
2022/10/05 02:55:42;;;;;;;12.60;2.30;;;17.80;65.90;;;;;;6247704;28;20402;-79
2022/10/05 02:58:56;;;;;;;5.57;2.17;;;17.80;66.00;;;;;;6225886;28;20426;-78
2022/10/05 03:02:17;;;;;;;3.88;2.17;;;17.80;65.90;;;;;;6243771;28;20056;-78
2022/10/05 03:05:27;;;;;;;3.80;2.28;;;17.80;65.90;;;;;;6247732;28;20030;-78
2022/10/05 03:09:04;;;;;;;7.80;2.65;;;17.80;65.70;;;;;;6237795;28;20045;-78
2022/10/05 03:12:25;;;;;;;3.92;2.55;;;17.80;65.80;;;;;;6244906;28;20378;-78
2022/10/05 03:16:12;;;;;;;7.00;2.40;;;17.80;65.60;;;;;;6245628;28;20370;-78
2022/10/05 03:19:16;;;;;;;4.18;2.03;;;17.90;65.70;;;;;;6242853;28;20108;-78
2022/10/05 03:22:48;;;;;;;6.72;2.53;;;17.80;65.40;;;;;;6218899;28;20030;-78
2022/10/05 03:25:56;;;;;;;2.92;2.20;;;17.90;65.60;;;;;;6219295;28;20356;-78
2022/10/05 03:29:16;;;;;;;3.22;2.28;;;17.90;65.50;;;;;;6222162;28;20034;-78
2022/10/05 03:32:20;;;;;;;4.68;2.90;;;17.90;65.40;;;;;;6232632;28;20034;-78
2022/10/05 03:35:40;;;;;;;4.82;2.30;;;17.80;65.20;;;;;;6247939;28;20037;-80
2022/10/05 03:39:11;;;;;;;4.13;2.17;;;17.80;65.30;;;;;;6236086;28;20139;-79
2022/10/05 03:42:50;;;;;;;7.43;2.38;;;17.80;65.40;;;;;;6233107;28;20037;-79
2022/10/05 03:46:24;;;;;;;5.32;2.33;;;17.80;65.40;;;;;;6217496;28;20525;-79
2022/10/05 03:49:47;;;;;;;6.18;2.40;;;17.70;65.20;;;;;;6219886;28;20037;-78
2022/10/05 03:52:56;;;;;;;5.40;2.30;;;17.70;65.30;;;;;;6238304;28;20056;-79
2022/10/05 03:56:05;;;;;;;4.95;2.15;;;17.60;65.50;;;;;;6246966;28;20474;-79
2022/10/05 03:59:28;;;;;;;3.38;1.98;;;17.50;65.60;;;;;;6240235;28;20466;-78
2022/10/05 04:02:33;;;;;;;7.07;2.67;;;17.50;65.60;;;;;;6221002;28;20037;-78
2022/10/05 04:05:43;;;;;;;7.07;2.05;;;17.50;65.70;;;;;;6248806;28;20037;-79
2022/10/05 04:08:59;;;;;;;3.22;2.08;;;17.40;65.70;;;;;;6244123;28;20410;-79
2022/10/05 04:12:35;;;;;;;7.75;2.10;;;17.40;65.80;;;;;;6221788;28;20034;-78
2022/10/05 04:16:05;;;;;;;7.75;2.13;;;17.40;66.00;;;;;;6192899;28;20026;-79
2022/10/05 04:19:14;;;;;;;3.10;2.05;;;17.30;66.00;;;;;;6177311;28;20038;-79
2022/10/05 04:22:37;;;;;;;4.43;2.20;;;17.30;66.20;;;;;;6178777;28;20043;-79
2022/10/05 04:25:55;;;;;;;6.43;2.72;;;17.30;66.30;;;;;;6194290;28;20419;-79
2022/10/05 04:29:15;;;;;;;4.72;2.22;;;17.30;66.40;;;;;;6180621;28;20041;-79
2022/10/05 04:32:20;;;;;;;15.40;2.40;;;17.20;66.40;;;;;;6177858;28;20192;-79
2022/10/05 04:35:37;;;;;;;7.13;2.47;;;17.20;66.40;;;;;;6181613;28;20031;-78
2022/10/05 04:38:59;;;;;;;3.70;2.45;;;17.20;66.40;;;;;;6160830;28;20039;-77
2022/10/05 04:42:03;;;;;;;16.15;2.90;;;17.30;66.50;;;;;;6192001;28;20057;-78
2022/10/05 04:45:12;;;;;;;9.25;2.50;;;17.20;66.40;;;;;;6156150;28;20506;-78
2022/10/05 04:48:53;;;;;;;4.90;2.33;;;17.20;66.40;;;;;;6188432;28;20034;-77
2022/10/05 04:52:06;;;;;;;4.38;1.90;;;17.20;66.50;;;;;;6104764;29;20046;-77
2022/10/05 04:55:47;;;;;;;5.82;2.45;;;17.20;66.40;;;;;;6144422;28;20480;-78
2022/10/05 04:59:01;;;;;;;3.67;2.03;;;17.20;66.50;;;;;;6186544;28;20093;-78
2022/10/05 05:02:10;;;;;;;10.52;2.40;;;17.10;66.60;;;;;;6176396;28;20399;-78
2022/10/05 05:05:15;;;;;;;9.65;2.45;;;17.10;66.70;;;;;;6156400;28;20353;-77
2022/10/05 05:08:34;;;;;;;4.22;2.10;;;17.10;66.80;;;;;;6193909;28;20042;-78
2022/10/05 05:11:44;;;;;;;5.03;2.35;;;17.10;66.80;;;;;;6176698;28;20034;-79
2022/10/05 05:15:23;;;;;;;4.82;2.47;;;17.00;66.90;;;;;;6192863;28;20038;-79
2022/10/05 05:18:25;;;;;;;;;;;17.00;67.00;;;;;;6167330;28;20038;-80
2022/10/05 05:22:00;;;;;;;4.53;2.40;;;17.00;67.00;;;;;;6166541;28;20358;-80
2022/10/05 05:25:12;;;;;;;8.98;2.40;;;16.90;67.00;;;;;;6164765;28;20103;-85
2022/10/05 05:28:16;;;;;;;8.70;2.50;;;16.90;67.10;;;;;;6180905;28;20487;-80
2022/10/05 05:31:29;;;;;;;6.70;2.30;;;16.90;67.30;;;;;;6232671;28;20623;-81
2022/10/05 05:34:57;;;;;;;11.73;2.85;;;16.90;67.30;;;;;;6221998;28;20141;-81
2022/10/05 05:38:02;;;;;;;13.25;3.05;;;16.80;67.40;;;;;;6240682;28;20042;-80
2022/10/05 05:41:08;;;;;;;6.28;2.50;;;16.80;67.40;;;;;;6219777;28;20045;-81
2022/10/05 05:44:23;;;;;;;9.68;2.28;;;16.80;67.40;;;;;;6229620;28;20379;-81
2022/10/05 05:47:25;;;;;;;12.75;2.55;;;16.80;67.50;;;;;;6235678;28;20063;-80
2022/10/05 05:50:33;;;;;;;7.15;2.80;;;16.80;67.50;;;;;;6242351;28;20339;-80
2022/10/05 05:53:38;;;;;;;4.90;3.22;;;16.80;67.60;;;;;;6247436;28;20038;-79
2022/10/05 05:57:18;;;;;;;4.90;2.58;;;16.80;67.60;;;;;;6253399;28;20029;-80
2022/10/05 06:00:33;;;;;;;12.47;5.33;;;16.80;67.60;;;;;;6253377;28;20037;-80
2022/10/05 06:03:38;;;;;;;8.63;3.08;;;16.80;67.50;;;;;;6231311;28;20068;-80
2022/10/05 06:06:45;;;;;;;8.55;3.13;;;16.90;67.50;;;;;;6219003;28;20077;-81
2022/10/05 06:09:57;;;;;;;8.65;2.63;;;16.90;67.50;;;;;;6218502;28;20033;-80
2022/10/05 06:13:15;;;;;;;5.97;2.72;;;17.00;67.40;;;;;;6241787;28;20029;-80
2022/10/05 06:16:17;;;;;;;7.63;2.75;;;17.00;67.20;;;;;;6194545;28;20035;-80
2022/10/05 06:19:22;;;;;;;5.78;2.83;;;17.00;67.00;;;;;;6202804;28;20037;-80
2022/10/05 06:22:32;;;;;;;8.15;3.72;;;17.00;66.90;;;;;;6202237;28;20113;-80
2022/10/05 06:25:41;;;;;;;;;;;17.10;66.80;;;;;;6229994;28;20022;-80
2022/10/05 06:28:46;;;;;;;3.55;2.33;;;17.10;66.80;;;;;;6239105;28;19924;-81
2022/10/05 06:32:03;;;;;;;16.58;3.63;;;17.10;66.50;;;;;;6224629;28;20164;-80
2022/10/05 06:35:26;;;;;;;8.13;2.75;;;17.10;66.60;;;;;;6241238;28;20049;-80
2022/10/05 06:38:41;;;;;;;22.27;3.53;;;17.10;66.70;;;;;;6241065;28;20048;-81
2022/10/05 06:42:07;;;;;;;11.18;3.00;;;17.00;66.70;;;;;;6241303;28;20045;-80
2022/10/05 06:45:53;;;;;;;8.45;3.58;;;17.10;66.70;;;;;;6237706;28;20037;-82
2022/10/05 06:49:29;;;;;;;12.52;3.47;;;17.10;66.70;;;;;;6228660;28;20029;-80
2022/10/05 06:53:00;;;;;;;8.90;3.08;;;17.20;66.60;;;;;;6225826;28;20424;-80
2022/10/05 06:56:19;;;;;;;13.27;3.75;;;17.20;66.60;;;;;;6222176;28;20029;-80
2022/10/05 07:00:00;;;;;;;8.93;2.63;;;17.20;66.30;;;;;;6242846;28;20063;-80
2022/10/05 07:03:20;;;;;;;5.68;2.83;;;17.30;66.40;;;;;;6217368;28;20034;-81
2022/10/05 07:06:28;;;;;;;14.63;2.92;;;17.30;66.40;;;;;;6234597;28;20033;-81
2022/10/05 07:10:21;;;;;;;5.95;3.03;;;17.40;66.40;;;;;;6213759;28;20041;-81
2022/10/05 07:13:39;;;;;;;13.68;3.22;;;17.40;66.40;;;;;;6222827;28;20113;-81
2022/10/05 07:17:05;;;;;;;15.07;2.92;;;17.50;66.30;;;;;;6220230;28;20041;-81
2022/10/05 07:20:27;;;;;;;7.78;3.00;;;17.50;66.20;;;;;;6201096;28;20402;-80
2022/10/05 07:23:47;;;;;;;6.90;3.20;;;17.60;66.10;;;;;;6215586;28;20087;-80
2022/10/05 07:27:16;;;;;;;7.40;3.75;;;17.70;65.90;;;;;;6228573;28;20034;-81
2022/10/05 07:30:17;;;;;;;9.20;3.33;;;17.70;65.60;;;;;;6235795;28;20037;-80
2022/10/05 07:33:48;;;;;;;12.10;2.72;;;17.80;65.40;;;;;;6217688;28;20048;-80
2022/10/05 07:40:43;;;;;;;12.23;3.30;;;17.90;65.00;;;;;;6254681;28;20038;-80
2022/10/05 07:44:12;;;;;;;13.60;2.78;;;18.00;64.80;;;;;;6235389;28;20124;-80
2022/10/05 07:47:24;;;;;;;3.95;2.40;;;18.10;64.80;;;;;;6201460;28;20041;-82
2022/10/05 07:50:53;;;;;;;10.25;2.90;;;18.20;64.50;;;;;;6220332;28;20121;-82
2022/10/05 07:54:14;;;;;;;7.55;2.83;;;18.30;64.40;;;;;;6237372;28;20033;-80
2022/10/05 07:57:20;;;;;;;9.02;2.42;;;18.40;64.20;;;;;;6229369;28;20068;-81
2022/10/05 08:00:26;;;;;;;10.70;2.78;;;18.60;64.00;;;;;;6245188;28;20048;-81
2022/10/05 08:03:41;;;;;;;15.98;2.97;;;18.70;63.70;;;;;;6214561;28;20577;-81
2022/10/05 08:06:52;;;;;;;3.15;1.98;;;18.80;63.00;;;;;;6229663;28;20038;-80
2022/10/05 08:10:16;;;;;;;6.72;2.42;;;19.00;62.70;;;;;;6225356;28;20034;-81
2022/10/05 08:13:33;;;;;;;7.38;3.03;;;19.10;62.60;;;;;;6197674;28;20045;-81
2022/10/05 08:16:37;;;;;;;7.75;3.25;;;19.20;61.90;;;;;;6233771;28;20128;-81
2022/10/05 08:20:00;;;;;;;6.80;2.72;;;19.40;61.40;;;;;;6256186;28;20034;-80
2022/10/05 08:23:14;;;;;;;5.90;2.47;;;19.50;61.00;;;;;;6237345;28;20044;-80
2022/10/05 08:26:39;;;;;;;14.80;2.47;;;19.60;60.40;;;;;;6221203;28;20478;-82
2022/10/05 08:29:51;;;;;;;7.65;2.17;;;19.70;60.20;;;;;;6221424;28;20056;-81
2022/10/05 08:33:16;;;;;;;10.35;2.40;;;19.80;59.70;;;;;;6233915;28;20398;-79
2022/10/05 08:36:45;;;;;;;7.75;2.30;;;19.90;59.60;;;;;;6217022;28;20049;-81
2022/10/05 08:40:17;;;;;;;6.47;2.42;;;20.00;59.40;;;;;;6242002;28;20053;-81
2022/10/05 08:43:38;;;;;;;6.57;2.60;;;20.20;59.10;;;;;;6219932;28;20056;-80
2022/10/05 08:46:50;;;;;;;13.25;3.25;;;20.30;58.50;;;;;;6215610;28;20103;-80
2022/10/05 08:50:02;;;;;;;8.43;2.42;;;20.40;58.20;;;;;;6220387;28;20034;-81
2022/10/05 08:53:51;;;;;;;4.80;3.00;;;20.50;58.00;;;;;;6221796;28;20454;-80
2022/10/05 08:57:13;;;;;;;5.13;2.63;;;20.60;57.80;;;;;;6234455;28;20041;-79
2022/10/05 09:00:53;;;;;;;8.35;2.50;;;20.80;57.30;;;;;;6241691;28;20091;-81
2022/10/05 09:04:33;;;;;;;7.13;2.13;;;20.90;57.00;;;;;;6162402;28;20057;-80
2022/10/05 09:07:57;;;;;;;;;;;21.00;56.60;;;;;;6110300;29;20062;-79
2022/10/05 09:11:11;;;;;;;6.97;2.00;;;21.10;56.30;;;;;;6069001;29;19947;-81
2022/10/05 09:14:35;;;;;;;6.95;2.17;;;21.20;56.20;;;;;;6070168;29;20115;-81
2022/10/05 09:17:58;;;;;;;5.65;2.35;;;21.40;56.20;;;;;;6049913;29;20083;-81
2022/10/05 09:21:13;;;;;;;10.85;2.13;;;21.50;55.70;;;;;;6069472;29;20057;-81
2022/10/05 09:24:42;;;;;;;2.55;1.70;;;21.60;55.30;;;;;;6070926;29;20044;-82
2022/10/05 09:27:55;;;;;;;3.50;2.03;;;21.70;55.10;;;;;;6038280;29;20047;-81
2022/10/05 09:31:13;;;;;;;5.57;2.15;;;21.70;54.80;;;;;;6061345;29;20089;-82
2022/10/05 09:34:57;;;;;;;8.80;1.83;;;21.70;54.70;;;;;;6069242;29;20108;-82
2022/10/05 09:38:02;;;;;;;3.92;1.58;;;21.80;54.50;;;;;;6069744;29;20079;-81
2022/10/05 09:41:12;;;;;;;7.72;1.83;;;21.80;54.20;;;;;;6066192;29;20056;-81
2022/10/05 09:44:44;;;;;;;8.68;2.10;;;21.80;54.00;;;;;;6100297;29;20464;-81
2022/10/05 09:48:08;;;;;;;7.50;1.77;;;21.80;53.90;;;;;;6184657;28;20042;-81
2022/10/05 09:51:32;;;;;;;6.95;2.25;;;21.80;53.60;;;;;;6237302;28;20060;-81
2022/10/05 09:54:36;;;;;;;6.68;2.35;;;21.90;53.70;;;;;;6224278;28;20033;-82
2022/10/05 09:57:58;;;;;;;2.95;2.10;;;22.00;53.60;;;;;;6230918;28;20042;-80
2022/10/05 10:01:08;;;;;;;11.80;2.47;;;22.00;53.30;;;;;;6243246;28;20053;-81
2022/10/05 10:04:42;;;;;;;5.32;2.28;;;22.00;53.00;;;;;;6225080;28;20042;-81
2022/10/05 10:08:13;;;;;;;4.85;2.13;;;22.00;52.80;;;;;;6222492;28;20520;-81
2022/10/05 10:12:03;;;;;;;3.40;1.95;;;22.10;52.80;;;;;;6229838;28;20180;-81
2022/10/05 10:15:20;;;;;;;7.32;2.85;;;22.20;52.80;;;;;;6037708;29;20037;-80
2022/10/05 10:18:28;;;;;;;12.10;2.30;;;22.40;52.60;;;;;;6017931;29;20124;-82
2022/10/05 10:22:00;;;;;;;7.60;2.33;;;22.60;52.40;;;;;;6023382;29;20175;-81
2022/10/05 10:25:51;;;;;;;8.20;2.58;;;22.80;51.80;;;;;;6069215;29;20378;-80
2022/10/05 10:29:14;;;;;;;10.57;3.05;;;23.10;51.40;;;;;;6063677;29;20045;-80
2022/10/05 10:32:20;;;;;;;6.93;2.35;;;23.30;50.80;;;;;;6057176;29;20390;-81
2022/10/05 10:35:36;;;;;;;4.10;2.53;;;23.50;50.40;;;;;;6064996;29;20055;-81
2022/10/05 10:39:18;;;;;;;4.78;2.47;;;23.70;49.80;;;;;;6050889;29;20136;-81
2022/10/05 10:42:35;;;;;;;9.18;2.17;;;24.00;49.30;;;;;;6022955;29;20045;-82
2022/10/05 10:46:04;;;;;;;4.28;2.38;;;24.10;49.00;;;;;;6026891;29;20219;-82
2022/10/05 10:49:12;;;;;;;7.25;3.00;;;24.20;48.70;;;;;;6027303;29;20147;-81
2022/10/05 10:52:33;;;;;;;5.97;2.80;;;24.40;48.30;;;;;;6099848;28;20371;-80
2022/10/05 10:55:55;;;;;;;7.35;3.35;;;24.60;48.20;;;;;;6127729;28;20046;-81
2022/10/05 10:59:33;;;;;;;6.68;2.70;;;24.70;48.50;;;;;;6156425;28;20107;-80
2022/10/05 11:02:36;;;;;;;6.07;3.03;;;24.90;47.80;;;;;;6148195;28;20045;-80
2022/10/05 11:05:45;;;;;;;6.45;3.00;;;25.10;47.60;;;;;;6170805;28;20039;-81
2022/10/05 11:09:15;;;;;;;5.28;2.97;;;25.20;47.20;;;;;;6187715;28;20031;-81
2022/10/05 11:12:35;;;;;;;4.78;2.97;;;25.40;47.20;;;;;;6169169;29;20031;-81
2022/10/05 11:15:49;;;;;;;6.38;3.35;;;25.60;47.00;;;;;;6215062;28;20018;-80
2022/10/05 11:18:53;;;;;;;5.63;2.90;;;25.80;46.60;;;;;;6267679;28;20120;-81
2022/10/05 11:22:24;;;;;;;11.40;3.38;;;26.00;46.20;;;;;;6253364;28;20088;-81
2022/10/05 11:25:26;;;;;;;6.07;3.28;;;26.20;46.10;;;;;;6228131;28;20517;-81
2022/10/05 11:28:58;;;;;;;6.38;3.13;;;26.30;45.80;;;;;;6254650;28;20042;-82
2022/10/05 11:32:34;;;;;;;6.82;3.40;;;26.30;45.80;;;;;;6249533;28;20046;-81
2022/10/05 11:35:52;;;;;;;10.32;3.40;;;26.50;45.70;;;;;;6241883;28;20056;-82
2022/10/05 11:39:12;;;;;;;17.17;4.43;;;26.70;45.50;;;;;;6238588;28;20454;-82
2022/10/05 11:42:35;;;;;;;8.45;3.53;;;26.90;45.40;;;;;;6248513;28;20054;-81
2022/10/05 11:45:54;;;;;;;11.18;3.63;;;27.10;45.00;;;;;;6236918;28;20050;-81
2022/10/05 11:50:04;;;;;;;8.68;3.42;;;27.40;44.40;;;;;;6214034;28;20088;-80
2022/10/05 11:53:12;;;;;;;14.98;3.78;;;27.70;43.80;;;;;;6155951;28;20045;-81
2022/10/05 11:56:37;;;;;;;13.68;3.83;;;28.10;43.30;;;;;;6184003;28;20095;-81
2022/10/05 12:00:01;;;;;;;6.82;3.50;;;28.40;42.80;;;;;;6196591;28;20715;-82
2022/10/05 12:03:41;;;;;;;8.50;3.65;;;28.70;42.50;;;;;;6190710;28;20610;-81
2022/10/05 12:06:48;;;;;;;11.80;3.90;;;28.90;41.80;;;;;;6165960;28;20404;-80
2022/10/05 12:10:24;;;;;;;15.47;4.07;;;29.20;41.50;;;;;;6166378;28;20039;-80
2022/10/05 12:13:37;;;;;;;14.07;3.88;;;29.70;40.80;;;;;;6194204;28;20050;-80
2022/10/05 12:16:48;;;;;;;13.38;3.92;;;30.00;39.90;;;;;;6200378;28;20065;-80
2022/10/05 12:20:01;;;;;;;6.95;3.55;;;30.20;39.60;;;;;;6179451;28;20153;-81
2022/10/05 12:23:12;;;;;;;18.83;4.15;;;30.40;39.30;;;;;;6193982;28;20030;-81
2022/10/05 12:26:36;;;;;;;14.15;4.07;;;30.70;38.80;;;;;;6209634;28;20057;-81
2022/10/05 12:29:43;;;;;;;5.38;3.40;;;31.00;38.50;;;;;;6245985;28;20037;-81
2022/10/05 12:33:15;;;;;;;13.23;4.30;;;31.40;37.70;;;;;;6218352;28;20030;-81
2022/10/05 12:36:19;;;;;;;7.78;3.55;;;31.70;37.00;;;;;;6223267;28;20037;-81
2022/10/05 12:39:20;;;;;;;9.57;3.95;;;31.60;36.90;;;;;;6204009;28;20030;-82
2022/10/05 12:42:50;;;;;;;7.70;3.83;;;31.70;36.70;;;;;;6204417;28;20077;-81
2022/10/05 12:45:51;;;;;;;7.15;3.90;;;31.70;36.50;;;;;;6221280;28;20037;-81
2022/10/05 12:49:19;;;;;;;8.30;3.72;;;31.80;36.40;;;;;;6229963;28;20075;-81
2022/10/05 12:52:42;;;;;;;6.22;3.58;;;31.70;36.30;;;;;;6215072;28;20120;-80
2022/10/05 12:55:57;;;;;;;7.90;3.55;;;31.00;37.30;;;;;;6217225;28;20048;-76
2022/10/05 12:59:16;;;;;;;10.63;3.97;;;30.20;38.20;;;;;;6243771;28;20052;-76
2022/10/05 13:02:24;;;;;;;10.05;3.75;;;29.40;39.20;;;;;;6231546;28;20078;-76
2022/10/05 13:05:25;;;;;;;6.57;3.53;;;28.70;40.50;;;;;;6250968;28;20061;-76
2022/10/05 13:08:55;;;;;;;9.52;3.75;;;28.20;41.70;;;;;;6243331;28;20114;-75
2022/10/05 13:12:02;;;;;;;11.10;4.00;;;27.60;42.80;;;;;;6219994;28;20052;-76
2022/10/05 13:15:34;;;;;;;7.25;3.97;;;27.20;43.70;;;;;;6207731;28;20048;-77
2022/10/05 13:18:44;;;;;;;14.65;3.80;;;26.90;44.30;;;;;;6241399;28;20045;-77
2022/10/05 13:21:45;;;;;;;13.52;3.75;;;26.70;44.90;;;;;;6243416;28;20047;-76
2022/10/05 13:25:10;;;;;;;10.15;4.47;;;26.50;45.40;;;;;;6244290;28;20034;-76
2022/10/05 13:28:53;;;;;;;20.77;4.13;;;26.30;45.80;;;;;;6244156;28;20522;-76
2022/10/05 13:32:11;;;;;;;14.00;4.20;;;26.10;46.40;;;;;;6236759;28;20450;-77
2022/10/05 13:35:27;;;;;;;10.20;4.30;;;26.00;46.80;;;;;;6234113;28;20514;-77
2022/10/05 13:38:51;;;;;;;9.07;3.67;;;25.80;47.00;;;;;;6237904;28;20502;-77
2022/10/05 13:42:10;;;;;;;15.30;4.28;;;25.80;47.20;;;;;;6233280;28;20139;-76
2022/10/05 13:45:24;;;;;;;8.50;3.63;;;25.70;47.40;;;;;;6218398;28;20050;-77
2022/10/05 13:48:45;;;;;;;7.32;3.88;;;25.60;47.60;;;;;;6235908;28;20064;-77
2022/10/05 13:51:52;;;;;;;11.23;4.03;;;25.60;47.90;;;;;;6241503;28;20439;-76
2022/10/05 13:55:04;;;;;;;7.70;3.70;;;25.50;48.10;;;;;;6224521;28;20037;-76
2022/10/05 13:58:31;;;;;;;10.75;3.85;;;25.40;48.30;;;;;;6239425;28;20034;-76
2022/10/05 14:02:00;;;;;;;9.80;3.88;;;25.30;48.50;;;;;;6242020;28;20033;-77
2022/10/05 14:05:22;;;;;;;9.00;3.95;;;25.30;48.80;;;;;;6240409;28;20124;-76
2022/10/05 14:08:30;;;;;;;7.03;3.10;;;25.30;48.80;;;;;;6243376;28;20033;-76
2022/10/05 14:11:36;;;;;;;15.95;3.67;;;25.30;48.90;;;;;;6224296;28;20049;-77
2022/10/05 14:14:53;;;;;;;9.73;3.92;;;25.20;49.00;;;;;;6244065;28;20041;-77
2022/10/05 14:17:54;;;;;;;11.25;4.20;;;25.20;49.10;;;;;;6257942;28;20068;-77
2022/10/05 14:21:15;;;;;;;5.47;3.28;;;25.20;49.20;;;;;;6241527;28;20041;-76
2022/10/05 14:24:26;;;;;;;7.68;3.72;;;25.20;49.30;;;;;;6239483;28;20037;-76
2022/10/05 14:27:31;;;;;;;6.80;3.78;;;25.30;49.50;;;;;;6245279;28;20090;-76
2022/10/05 14:30:33;;;;;;;9.80;3.63;;;25.20;49.50;;;;;;6241657;28;20045;-76
2022/10/05 14:33:35;;;;;;;11.00;3.80;;;25.30;49.50;;;;;;6238073;28;20056;-75
2022/10/05 14:36:42;;;;;;;8.57;3.55;;;25.20;49.50;;;;;;6243501;28;20042;-76
2022/10/05 14:39:48;;;;;;;11.38;3.63;;;25.30;49.60;;;;;;6222022;28;20111;-75
2022/10/05 14:42:50;;;;;;;8.07;3.38;;;25.30;49.60;;;;;;6241394;28;20028;-76
2022/10/05 14:45:56;;;;;;;10.32;3.45;;;25.30;49.70;;;;;;6246588;28;20332;-76
2022/10/05 14:49:15;;;;;;;6.72;3.30;;;25.30;49.70;;;;;;6248989;28;20025;-76
2022/10/05 14:52:31;;;;;;;8.90;3.40;;;25.30;49.90;;;;;;6245605;28;20425;-76
2022/10/05 14:55:44;;;;;;;9.32;3.47;;;25.30;50.00;;;;;;6229158;28;20430;-76
2022/10/05 14:59:06;;;;;;;4.80;2.67;;;25.30;50.00;;;;;;6246760;28;20113;-76
2022/10/05 15:02:41;;;;;;;9.00;3.33;;;25.30;50.10;;;;;;6242966;28;20049;-75
2022/10/05 15:05:51;;;;;;;13.75;3.47;;;25.30;50.20;;;;;;6244281;28;20483;-76
2022/10/05 15:09:06;;;;;;;7.13;2.90;;;25.30;50.20;;;;;;6245564;28;20072;-76
2022/10/05 15:12:10;;;;;;;5.90;3.05;;;25.30;50.20;;;;;;6246424;28;20087;-78
2022/10/05 15:15:31;;;;;;;7.90;3.08;;;25.30;50.10;;;;;;6229475;28;20065;-76
2022/10/05 15:18:56;;;;;;;11.23;2.97;;;25.40;50.20;;;;;;6220640;28;20119;-76
2022/10/05 15:22:30;;;;;;;12.55;3.10;;;25.40;50.20;;;;;;6218193;28;20108;-76
2022/10/05 15:25:39;;;;;;;8.52;3.55;;;25.40;50.30;;;;;;6239163;28;20412;-76
2022/10/05 15:29:12;;;;;;;8.23;3.00;;;25.40;50.30;;;;;;6236615;28;20123;-76
2022/10/05 15:32:40;;;;;;;7.78;3.25;;;25.40;50.40;;;;;;6224432;28;20053;-76
2022/10/05 15:35:45;;;;;;;9.73;3.00;;;25.40;50.40;;;;;;6222643;28;20095;-77
2022/10/05 15:39:25;;;;;;;9.05;2.88;;;25.40;50.30;;;;;;6236929;28;20052;-76
2022/10/05 15:42:38;;;;;;;6.65;3.35;;;25.40;50.50;;;;;;6239125;28;20072;-77
2022/10/05 15:45:53;;;;;;;8.77;3.28;;;25.40;50.50;;;;;;6213309;28;20045;-76
2022/10/05 15:49:15;;;;;;;7.88;3.05;;;25.30;50.60;;;;;;6218871;28;20069;-76
2022/10/05 15:52:36;;;;;;;7.60;3.30;;;25.30;50.90;;;;;;6216654;28;20038;-77
2022/10/05 15:55:46;;;;;;;11.90;3.55;;;25.30;50.90;;;;;;6215761;28;20042;-77
2022/10/05 15:59:09;;;;;;;13.07;3.22;;;25.30;51.10;;;;;;6238253;28;20049;-76
2022/10/05 16:02:40;;;;;;;8.15;3.35;;;25.30;51.10;;;;;;6240233;28;20076;-76
2022/10/05 16:09:24;;;;;;;6.13;3.03;;;25.20;51.20;;;;;;6248182;28;20069;-77
2022/10/05 16:13:00;;;;;;;6.43;3.20;;;25.20;51.90;;;;;;6243624;28;20208;-76
2022/10/05 16:16:23;;;;;;;6.10;3.15;;;25.10;51.50;;;;;;6172924;28;20471;-77
2022/10/05 16:19:39;;;;;;;14.88;3.35;;;25.10;51.60;;;;;;6191942;28;20070;-76
2022/10/05 16:22:46;;;;;;;7.63;3.60;;;25.00;51.70;;;;;;6153388;28;20039;-78
2022/10/05 16:25:58;;;;;;;6.85;3.28;;;25.00;51.80;;;;;;6192174;28;20042;-76
2022/10/05 16:29:22;;;;;;;12.13;2.92;;;24.90;51.90;;;;;;6176548;28;20109;-77
2022/10/05 16:32:37;;;;;;;7.65;3.50;;;24.90;52.00;;;;;;6185850;28;20041;-76
2022/10/05 16:35:48;;;;;;;7.00;3.55;;;24.80;52.20;;;;;;6164636;28;20042;-76
2022/10/05 16:39:02;;;;;;;13.68;3.55;;;24.80;52.30;;;;;;6157230;28;20043;-76
2022/10/05 16:42:33;;;;;;;8.40;3.85;;;24.70;52.40;;;;;;6189279;28;20042;-77
2022/10/05 16:46:18;;;;;;;8.98;3.67;;;24.70;52.60;;;;;;6171057;28;20087;-76
2022/10/05 16:49:39;;;;;;;6.65;2.88;;;24.60;52.80;;;;;;6091627;29;20035;-76
2022/10/05 16:52:44;;;;;;;8.60;3.83;;;24.50;52.90;;;;;;6126488;28;20437;-75
2022/10/05 16:55:50;;;;;;;10.73;3.97;;;24.50;53.00;;;;;;6161146;28;20102;-77
2022/10/05 16:58:56;;;;;;;9.68;3.80;;;24.40;53.10;;;;;;6141084;28;20064;-76
2022/10/05 17:02:51;;;;;;;9.68;3.42;;;24.30;53.20;;;;;;6141364;28;21415;-75
2022/10/05 17:06:13;;;;;;;6.28;3.70;;;24.30;53.40;;;;;;6081923;29;20047;-76
2022/10/05 17:09:38;;;;;;;11.18;4.22;;;24.20;53.40;;;;;;6120306;29;20050;-75
2022/10/05 17:12:59;;;;;;;6.78;3.10;;;24.20;54.10;;;;;;6122442;29;20051;-76
2022/10/05 17:16:02;;;;;;;9.88;4.00;;;24.10;53.60;;;;;;6120309;29;20040;-76
2022/10/05 17:19:03;;;;;;;5.75;3.28;;;24.10;53.70;;;;;;6107123;29;20393;-77